Terminal Aerodrome Forecast
Issued by NWS

Home | Current Version | Previous Version | Text Only | Print | Product List | Glossary On
Versions: 1 2 3 4 5 6 7 8 9 10 11 12 13 14 15 16
000
FTUS46 KPDT 061729
TAFDLS
TAF
KDLS 061729Z 0618/0718 33010KT P6SM FEW120
     FM062300 32015G22KT P6SM SCT300
     FM070800 31011KT P6SM BKN300
     FM071500 32011G17KT P6SM SCT300=

USA.gov is the U.S. government's official web portal to all federal, state and local government web resources and services.